Time;durP1;ratioP1;P1;durP2;ratioP2;P2;SDS_P1;SDS_P2;PMS_P1;PMS_P2;Temp;Humidity;BMP_temperature;BMP_pressure;BME280_temperature;BME280_humidity;BME280_pressure;Samples;Min_cycle;Max_cycle;Signal;HPM_P1;HPM_P2
2021/05/23 00:02:08;;;;;;;4.13;2.25;;;;;;;;;;5066877;28;20212;-74
2021/05/23 00:04:34;;;;;;;3.63;2.20;;;;;;;;;;5055896;28;20208;-74
2021/05/23 00:07:00;;;;;;;4.65;2.50;;;;;;;;;;5066533;28;20262;-73
2021/05/23 00:09:27;;;;;;;8.40;2.67;;;;;;;;;;5061357;28;20192;-74
2021/05/23 00:11:53;;;;;;;5.07;2.40;;;;;;;;;;5063363;28;20553;-74
2021/05/23 00:14:20;;;;;;;4.18;2.47;;;;;;;;;;5060012;28;20575;-74
2021/05/23 00:16:46;;;;;;;6.22;2.50;;;;;;;;;;5053716;28;20176;-74
2021/05/23 00:19:12;;;;;;;5.28;2.20;;;;;;;;;;5058385;28;20660;-75
2021/05/23 00:21:38;;;;;;;4.55;2.70;;;;;;;;;;5059072;28;20534;-77
2021/05/23 00:24:05;;;;;;;5.93;2.10;;;;;;;;;;5061246;28;20184;-75
2021/05/23 00:26:31;;;;;;;5.25;2.40;;;;;;;;;;5073757;28;20415;-74
2021/05/23 00:28:57;;;;;;;5.70;2.22;;;;;;;;;;5060553;28;20175;-74
2021/05/23 00:31:23;;;;;;;5.23;2.23;;;;;;;;;;5083305;28;20181;-74
2021/05/23 00:33:49;;;;;;;6.40;2.25;;;;;;;;;;5075365;28;20426;-74
2021/05/23 00:36:15;;;;;;;8.65;2.42;;;;;;;;;;5062090;28;20173;-76
2021/05/23 00:38:43;;;;;;;5.32;2.42;;;;;;;;;;5080448;28;20179;-75
2021/05/23 00:41:09;;;;;;;4.05;2.50;;;;;;;;;;5069866;28;20227;-76
2021/05/23 00:43:35;;;;;;;5.72;3.00;;;;;;;;;;5053879;28;20527;-76
2021/05/23 00:46:01;;;;;;;5.30;2.50;;;;;;;;;;5056191;28;20173;-75
2021/05/23 00:48:27;;;;;;;5.28;2.40;;;;;;;;;;5081478;28;20179;-73
2021/05/23 00:50:53;;;;;;;3.88;2.45;;;;;;;;;;5056258;28;20242;-73
2021/05/23 00:53:20;;;;;;;6.00;2.90;;;;;;;;;;5076749;28;20207;-74
2021/05/23 00:55:46;;;;;;;3.45;2.15;;;;;;;;;;5055878;28;20179;-74
2021/05/23 00:58:12;;;;;;;4.50;2.10;;;;;;;;;;5075168;28;20187;-75
2021/05/23 01:00:59;;;;;;;3.75;2.15;;;;;;;;;;5069063;28;20191;-76
2021/05/23 01:03:28;;;;;;;8.57;2.50;;;;;;;;;;5049294;28;20228;-74
2021/05/23 01:06:01;;;;;;;5.80;2.35;;;;;;;;;;5056410;28;20200;-74
2021/05/23 01:08:27;;;;;;;3.92;2.55;;;;;;;;;;5079812;28;20183;-74
2021/05/23 01:10:54;;;;;;;4.80;2.83;;;;;;;;;;5062256;28;20196;-75
2021/05/23 01:13:36;;;;;;;5.00;2.40;;;;;;;;;;5074254;28;20212;-75
2021/05/23 01:16:02;;;;;;;4.13;2.70;;;;;;;;;;5061050;28;20290;-76
2021/05/23 01:18:37;;;;;;;4.03;2.37;;;;;;;;;;5084105;28;20184;-74
2021/05/23 01:21:06;;;;;;;5.70;2.65;;;;;;;;;;5063993;28;20481;-74
2021/05/23 01:23:33;;;;;;;5.65;2.38;;;;;;;;;;5069980;28;20204;-75
2021/05/23 01:26:05;;;;;;;5.20;2.50;;;;;;;;;;5074031;28;20279;-73
2021/05/23 01:28:32;;;;;;;4.93;2.40;;;;;;;;;;5072103;28;20176;-77
2021/05/23 01:30:58;;;;;;;5.95;2.40;;;;;;;;;;5073123;28;20195;-74
2021/05/23 01:33:24;;;;;;;5.90;2.10;;;;;;;;;;5079710;28;20250;-73
2021/05/23 01:35:55;;;;;;;3.78;2.83;;;;;;;;;;5069478;28;20203;-74
2021/05/23 01:38:21;;;;;;;3.47;2.58;;;;;;;;;;5058813;28;20173;-74
2021/05/23 01:40:48;;;;;;;7.15;3.08;;;;;;;;;;5064487;28;20199;-76
2021/05/23 01:43:14;;;;;;;4.82;2.50;;;;;;;;;;5061571;28;20580;-73
2021/05/23 01:45:40;;;;;;;4.38;2.70;;;;;;;;;;5067170;28;20241;-75
2021/05/23 01:48:07;;;;;;;6.05;2.40;;;;;;;;;;5059053;28;20177;-76
2021/05/23 01:50:34;;;;;;;4.38;2.50;;;;;;;;;;5075156;28;20188;-75
2021/05/23 01:53:01;;;;;;;4.88;2.60;;;;;;;;;;5058991;28;20177;-76
2021/05/23 01:55:28;;;;;;;5.18;2.63;;;;;;;;;;5072926;28;20231;-74
2021/05/23 01:57:54;;;;;;;4.05;2.50;;;;;;;;;;5070364;28;20183;-74
2021/05/23 02:00:23;;;;;;;5.22;2.30;;;;;;;;;;5084523;28;20200;-73
2021/05/23 02:02:49;;;;;;;4.50;2.47;;;;;;;;;;5066461;28;20224;-73
2021/05/23 02:05:15;;;;;;;4.30;2.47;;;;;;;;;;5057528;28;20642;-75
2021/05/23 02:07:42;;;;;;;5.45;2.50;;;;;;;;;;5054269;28;21014;-74
2021/05/23 02:10:12;;;;;;;4.45;2.40;;;;;;;;;;5068377;28;20224;-75
2021/05/23 02:12:41;;;;;;;4.60;2.92;;;;;;;;;;5080600;28;20184;-75
2021/05/23 02:15:07;;;;;;;4.97;2.30;;;;;;;;;;5061717;28;20538;-76
2021/05/23 02:17:37;;;;;;;4.38;2.45;;;;;;;;;;5081875;28;20260;-76
2021/05/23 02:20:07;;;;;;;6.80;2.47;;;;;;;;;;5062313;28;20207;-74
2021/05/23 02:22:38;;;;;;;3.70;2.50;;;;;;;;;;5065239;28;20394;-75
2021/05/23 02:25:05;;;;;;;6.45;2.80;;;;;;;;;;5079755;28;20176;-73
2021/05/23 02:27:35;;;;;;;4.13;3.03;;;;;;;;;;5075177;28;20234;-75
2021/05/23 02:30:02;;;;;;;8.00;3.08;;;;;;;;;;5063269;28;20192;-74
2021/05/23 02:32:28;;;;;;;4.45;2.22;;;;;;;;;;5077364;28;20262;-73
2021/05/23 02:34:54;;;;;;;5.80;2.60;;;;;;;;;;5066938;28;20212;-75
2021/05/23 02:37:20;;;;;;;4.75;2.45;;;;;;;;;;5064115;28;20180;-74
2021/05/23 02:39:46;;;;;;;4.53;2.73;;;;;;;;;;5073445;28;20192;-73
2021/05/23 02:42:12;;;;;;;4.38;2.50;;;;;;;;;;5062448;28;20509;-74
2021/05/23 02:44:38;;;;;;;6.05;2.63;;;;;;;;;;5059203;28;20226;-73
2021/05/23 02:47:04;;;;;;;3.35;2.25;;;;;;;;;;5060564;28;20591;-75
2021/05/23 02:49:30;;;;;;;5.72;2.70;;;;;;;;;;5077812;28;20200;-74
2021/05/23 02:51:56;;;;;;;6.72;2.60;;;;;;;;;;5061209;28;20671;-75
2021/05/23 02:54:22;;;;;;;5.50;2.90;;;;;;;;;;5059082;28;20181;-74
2021/05/23 02:56:48;;;;;;;4.93;2.92;;;;;;;;;;5057955;28;20443;-75
2021/05/23 02:59:15;;;;;;;8.93;2.70;;;;;;;;;;5058910;28;20201;-74
2021/05/23 03:01:41;;;;;;;6.82;2.63;;;;;;;;;;5059150;28;20587;-76
2021/05/23 03:04:06;;;;;;;5.80;2.90;;;;;;;;;;5053399;28;20181;-76
2021/05/23 03:06:32;;;;;;;4.83;2.53;;;;;;;;;;5060230;28;20318;-74
2021/05/23 03:08:58;;;;;;;7.07;2.50;;;;;;;;;;5073625;28;20768;-74
2021/05/23 03:11:24;;;;;;;7.13;3.63;;;;;;;;;;5072757;28;20407;-76
2021/05/23 03:13:51;;;;;;;4.63;2.60;;;;;;;;;;5073906;28;20450;-75
2021/05/23 03:16:16;;;;;;;6.97;3.00;;;;;;;;;;5087414;28;20178;-73
2021/05/23 03:18:42;;;;;;;5.97;2.80;;;;;;;;;;5079653;28;20219;-76
2021/05/23 03:21:08;;;;;;;4.95;2.88;;;;;;;;;;5058041;28;20210;-74
2021/05/23 03:23:34;;;;;;;10.27;3.05;;;;;;;;;;5075222;28;20195;-74
2021/05/23 03:26:01;;;;;;;4.93;3.05;;;;;;;;;;5060094;28;20180;-75
2021/05/23 03:28:26;;;;;;;10.05;3.60;;;;;;;;;;5063466;28;20176;-74
2021/05/23 03:30:52;;;;;;;5.50;3.07;;;;;;;;;;5065495;28;20562;-75
2021/05/23 03:33:18;;;;;;;7.25;2.97;;;;;;;;;;5063902;28;20414;-73
2021/05/23 03:35:44;;;;;;;6.07;2.70;;;;;;;;;;5061500;28;20183;-74
2021/05/23 03:38:11;;;;;;;6.45;3.20;;;;;;;;;;5052949;28;20177;-73
2021/05/23 03:40:39;;;;;;;6.05;3.05;;;;;;;;;;5053236;28;20224;-75
2021/05/23 03:43:05;;;;;;;4.50;3.00;;;;;;;;;;5072127;28;20199;-72
2021/05/23 03:45:31;;;;;;;6.80;2.88;;;;;;;;;;5053175;28;20177;-73
2021/05/23 03:47:57;;;;;;;5.78;3.15;;;;;;;;;;5066449;28;20245;-75
2021/05/23 03:50:25;;;;;;;5.22;3.00;;;;;;;;;;5053236;28;20208;-75
2021/05/23 03:52:52;;;;;;;7.40;3.15;;;;;;;;;;5076859;28;20580;-75
2021/05/23 03:55:19;;;;;;;6.35;3.08;;;;;;;;;;5081633;28;20641;-73
2021/05/23 03:57:45;;;;;;;5.55;3.05;;;;;;;;;;5058617;28;20513;-76
2021/05/23 04:00:12;;;;;;;7.63;3.45;;;;;;;;;;5063246;28;20279;-76
2021/05/23 04:02:38;;;;;;;4.30;2.92;;;;;;;;;;5064781;28;20267;-72
2021/05/23 04:05:05;;;;;;;5.03;3.00;;;;;;;;;;5055390;28;20230;-73
2021/05/23 04:07:31;;;;;;;6.90;3.60;;;;;;;;;;5062502;28;20192;-74
2021/05/23 04:09:57;;;;;;;4.55;2.95;;;;;;;;;;5057262;28;20201;-73
2021/05/23 04:12:30;;;;;;;4.50;2.80;;;;;;;;;;5065493;28;20243;-74
2021/05/23 04:14:56;;;;;;;8.55;3.40;;;;;;;;;;5055625;28;20226;-75
2021/05/23 04:17:22;;;;;;;6.00;3.17;;;;;;;;;;5080297;28;20632;-75
2021/05/23 04:19:48;;;;;;;10.57;3.42;;;;;;;;;;5080579;28;20211;-74
2021/05/23 04:22:15;;;;;;;5.87;2.87;;;;;;;;;;5074562;28;20663;-74
2021/05/23 04:24:41;;;;;;;4.28;3.00;;;;;;;;;;5072029;28;20435;-76
2021/05/23 04:27:07;;;;;;;4.65;2.97;;;;;;;;;;5060981;28;20613;-75
2021/05/23 04:29:34;;;;;;;6.60;3.05;;;;;;;;;;5066008;28;20204;-74
2021/05/23 04:32:01;;;;;;;6.28;3.53;;;;;;;;;;5070380;28;20619;-76
2021/05/23 04:34:27;;;;;;;4.88;3.20;;;;;;;;;;5077192;28;20177;-73
2021/05/23 04:36:53;;;;;;;8.10;3.03;;;;;;;;;;5067398;28;20181;-73
2021/05/23 04:39:20;;;;;;;6.22;3.17;;;;;;;;;;5056189;28;20250;-73
2021/05/23 04:41:46;;;;;;;6.10;2.95;;;;;;;;;;5065989;28;20192;-76
2021/05/23 04:44:12;;;;;;;7.32;3.45;;;;;;;;;;5056227;28;20173;-73
2021/05/23 04:46:38;;;;;;;5.28;2.92;;;;;;;;;;5063685;28;20192;-76
2021/05/23 04:49:04;;;;;;;6.37;4.20;;;;;;;;;;5069172;28;20216;-73
2021/05/23 04:51:30;;;;;;;5.80;2.90;;;;;;;;;;5073829;28;20438;-75
2021/05/23 04:53:56;;;;;;;8.40;2.85;;;;;;;;;;5087341;28;20221;-74
2021/05/23 04:56:22;;;;;;;6.60;2.70;;;;;;;;;;5075251;28;20515;-74
2021/05/23 04:58:48;;;;;;;6.45;3.45;;;;;;;;;;5055768;28;20185;-75
2021/05/23 05:01:14;;;;;;;6.93;2.97;;;;;;;;;;5062415;28;20185;-72
2021/05/23 05:03:40;;;;;;;6.30;3.30;;;;;;;;;;5056658;28;20271;-73
2021/05/23 05:06:06;;;;;;;7.40;3.17;;;;;;;;;;5060811;28;20247;-72
2021/05/23 05:08:32;;;;;;;8.77;2.95;;;;;;;;;;5055687;28;20490;-74
2021/05/23 05:10:59;;;;;;;4.97;2.85;;;;;;;;;;5062313;28;20196;-71
2021/05/23 05:13:25;;;;;;;6.40;2.60;;;;;;;;;;5074557;28;20663;-73
2021/05/23 05:15:51;;;;;;;6.75;2.53;;;;;;;;;;5058350;28;20263;-74
2021/05/23 05:18:17;;;;;;;7.65;3.08;;;;;;;;;;5062664;28;20235;-74
2021/05/23 05:20:43;;;;;;;7.78;2.90;;;;;;;;;;5062494;28;20203;-76
2021/05/23 05:23:09;;;;;;;9.60;3.20;;;;;;;;;;5075950;28;20199;-76
2021/05/23 05:25:35;;;;;;;7.22;3.17;;;;;;;;;;5084607;28;20175;-73
2021/05/23 05:28:01;;;;;;;9.90;3.60;;;;;;;;;;5061792;28;20172;-75
2021/05/23 05:30:27;;;;;;;9.32;2.90;;;;;;;;;;5065733;28;20207;-77
2021/05/23 05:32:54;;;;;;;6.18;3.08;;;;;;;;;;5068758;28;20646;-74
2021/05/23 05:35:20;;;;;;;7.28;3.25;;;;;;;;;;5054772;28;20499;-74
2021/05/23 05:37:46;;;;;;;7.13;2.95;;;;;;;;;;5061833;28;20185;-74
2021/05/23 05:40:12;;;;;;;7.07;2.95;;;;;;;;;;5055215;28;20254;-73
2021/05/23 05:42:38;;;;;;;6.05;3.13;;;;;;;;;;5064640;28;20212;-74
2021/05/23 05:45:04;;;;;;;7.28;3.10;;;;;;;;;;5061223;28;20324;-76
2021/05/23 05:47:30;;;;;;;7.13;3.30;;;;;;;;;;5073861;28;20181;-75
2021/05/23 05:49:56;;;;;;;8.13;3.15;;;;;;;;;;5057496;28;20197;-72
2021/05/23 05:52:22;;;;;;;10.18;2.90;;;;;;;;;;5077683;28;20175;-75
2021/05/23 05:54:49;;;;;;;6.70;2.97;;;;;;;;;;5075495;28;20542;-75
2021/05/23 05:57:15;;;;;;;5.90;2.95;;;;;;;;;;5062862;28;20188;-76
2021/05/23 05:59:41;;;;;;;7.53;2.72;;;;;;;;;;5058520;28;20554;-73
2021/05/23 06:02:07;;;;;;;6.88;2.72;;;;;;;;;;5060261;28;20213;-75
2021/05/23 06:04:33;;;;;;;9.52;3.47;;;;;;;;;;5061230;28;20179;-78
2021/05/23 06:06:59;;;;;;;5.25;3.00;;;;;;;;;;5071729;28;20272;-76
2021/05/23 06:09:25;;;;;;;6.57;2.70;;;;;;;;;;5058476;28;20275;-75
2021/05/23 06:11:52;;;;;;;6.82;3.00;;;;;;;;;;5083686;28;20611;-73
2021/05/23 06:14:18;;;;;;;5.57;2.90;;;;;;;;;;5060987;28;20235;-72
2021/05/23 06:16:44;;;;;;;7.03;3.20;;;;;;;;;;5081361;28;20191;-75
2021/05/23 06:19:10;;;;;;;9.05;3.47;;;;;;;;;;5062733;28;20200;-74
2021/05/23 06:21:36;;;;;;;8.48;3.30;;;;;;;;;;5068224;28;20183;-75
2021/05/23 06:24:02;;;;;;;7.88;3.15;;;;;;;;;;5084207;28;20215;-76
2021/05/23 06:26:28;;;;;;;12.48;3.40;;;;;;;;;;5082203;28;20165;-75
2021/05/23 06:28:54;;;;;;;8.35;3.05;;;;;;;;;;5073593;28;20172;-73
2021/05/23 06:31:23;;;;;;;7.97;2.92;;;;;;;;;;5074234;28;20191;-75
2021/05/23 06:33:49;;;;;;;5.15;2.38;;;;;;;;;;5063444;28;20184;-74
2021/05/23 06:36:16;;;;;;;5.32;2.30;;;;;;;;;;5058091;28;20173;-74
2021/05/23 06:38:42;;;;;;;4.18;2.63;;;;;;;;;;5059892;28;20181;-76
2021/05/23 06:41:08;;;;;;;6.22;2.33;;;;;;;;;;5057686;28;20251;-77
2021/05/23 06:43:34;;;;;;;5.03;2.55;;;;;;;;;;5064873;28;20208;-75
2021/05/23 06:46:00;;;;;;;7.83;2.53;;;;;;;;;;5056561;28;20177;-73
2021/05/23 06:48:26;;;;;;;8.23;2.70;;;;;;;;;;5079983;28;20735;-74
2021/05/23 06:50:53;;;;;;;11.38;3.78;;;;;;;;;;5069946;28;20679;-72
2021/05/23 06:53:19;;;;;;;6.40;2.42;;;;;;;;;;5059796;28;20188;-74
2021/05/23 06:55:45;;;;;;;6.43;2.58;;;;;;;;;;5066708;28;20180;-76
2021/05/23 06:58:11;;;;;;;7.77;2.80;;;;;;;;;;5058079;28;20667;-74
2021/05/23 07:00:37;;;;;;;7.60;3.03;;;;;;;;;;5059848;28;20446;-75
2021/05/23 07:03:03;;;;;;;6.90;2.90;;;;;;;;;;5053273;28;20200;-75
2021/05/23 07:05:29;;;;;;;5.60;2.70;;;;;;;;;;5065955;28;20181;-75
2021/05/23 07:07:55;;;;;;;9.07;3.92;;;;;;;;;;5061142;28;20627;-73
2021/05/23 07:10:21;;;;;;;4.10;2.20;;;;;;;;;;5057003;28;20205;-75
2021/05/23 07:12:47;;;;;;;6.63;2.25;;;;;;;;;;5056769;28;20428;-74
2021/05/23 07:15:13;;;;;;;7.15;2.80;;;;;;;;;;5055550;28;20189;-75
2021/05/23 07:17:39;;;;;;;17.45;2.85;;;;;;;;;;5078846;28;20501;-75
2021/05/23 07:20:06;;;;;;;7.80;2.70;;;;;;;;;;5059638;28;20201;-76
2021/05/23 07:22:32;;;;;;;4.90;2.72;;;;;;;;;;5068067;28;20196;-74
2021/05/23 07:24:58;;;;;;;6.20;2.92;;;;;;;;;;5068451;28;20227;-76
2021/05/23 07:27:24;;;;;;;8.33;3.00;;;;;;;;;;5058637;28;20173;-76
2021/05/23 07:29:50;;;;;;;5.45;2.28;;;;;;;;;;5072890;28;20430;-73
2021/05/23 07:32:16;;;;;;;7.68;2.60;;;;;;;;;;5085224;28;20648;-75
2021/05/23 07:34:42;;;;;;;4.20;2.50;;;;;;;;;;5054355;28;20184;-75
2021/05/23 07:37:08;;;;;;;6.23;2.60;;;;;;;;;;5072965;28;20407;-75
2021/05/23 07:39:34;;;;;;;5.47;2.50;;;;;;;;;;5063783;28;20474;-76
2021/05/23 07:42:00;;;;;;;3.75;1.90;;;;;;;;;;5071586;28;20479;-73
2021/05/23 07:44:26;;;;;;;6.10;2.50;;;;;;;;;;5069575;28;20180;-72
2021/05/23 07:46:52;;;;;;;5.90;2.80;;;;;;;;;;5056775;28;20950;-74
2021/05/23 07:49:18;;;;;;;6.47;2.90;;;;;;;;;;5052752;28;20193;-75
2021/05/23 07:51:44;;;;;;;5.27;2.30;;;;;;;;;;5054211;28;20419;-77
2021/05/23 07:54:10;;;;;;;4.63;2.10;;;;;;;;;;5049685;28;20416;-74
2021/05/23 07:56:36;;;;;;;5.82;2.65;;;;;;;;;;5049082;28;20180;-73
2021/05/23 07:59:03;;;;;;;8.45;2.95;;;;;;;;;;5051495;28;20573;-76
2021/05/23 08:01:29;;;;;;;5.80;2.35;;;;;;;;;;5050923;28;20173;-74
2021/05/23 08:03:55;;;;;;;5.67;2.47;;;;;;;;;;5048665;28;20216;-77
2021/05/23 08:06:21;;;;;;;6.63;2.10;;;;;;;;;;5048841;28;20525;-74
2021/05/23 08:08:47;;;;;;;5.93;2.35;;;;;;;;;;5048352;28;20180;-74
2021/05/23 08:11:13;;;;;;;4.87;2.70;;;;;;;;;;5053898;28;20545;-73
2021/05/23 08:13:39;;;;;;;7.18;2.28;;;;;;;;;;5054052;28;20454;-73
2021/05/23 08:16:07;;;;;;;4.93;2.20;;;;;;;;;;5061111;28;20846;-73
2021/05/23 08:18:33;;;;;;;5.97;1.80;;;;;;;;;;5048490;28;20557;-74
2021/05/23 08:21:00;;;;;;;5.78;2.42;;;;;;;;;;5055781;28;20199;-74
2021/05/23 08:23:27;;;;;;;6.90;2.40;;;;;;;;;;5053385;28;20286;-74
2021/05/23 08:25:54;;;;;;;7.45;2.42;;;;;;;;;;5048729;28;20230;-73
2021/05/23 08:28:20;;;;;;;4.55;2.03;;;;;;;;;;5061855;28;20184;-74
2021/05/23 08:30:46;;;;;;;3.80;1.80;;;;;;;;;;5061550;28;20269;-74
2021/05/23 08:33:12;;;;;;;4.45;2.10;;;;;;;;;;5049856;28;20596;-73
2021/05/23 08:35:39;;;;;;;7.68;2.45;;;;;;;;;;5052294;28;20256;-73
2021/05/23 08:38:06;;;;;;;5.93;2.10;;;;;;;;;;5051926;28;20579;-75
2021/05/23 08:40:32;;;;;;;4.15;2.13;;;;;;;;;;5053487;28;20646;-73
2021/05/23 08:42:58;;;;;;;7.60;2.60;;;;;;;;;;5057712;28;20200;-73
2021/05/23 08:45:24;;;;;;;5.22;3.10;;;;;;;;;;5055858;28;20202;-76
2021/05/23 08:47:51;;;;;;;5.70;2.45;;;;;;;;;;5065197;28;20537;-75
2021/05/23 08:50:21;;;;;;;3.70;2.20;;;;;;;;;;5068634;28;20287;-73
2021/05/23 08:52:54;;;;;;;4.88;2.28;;;;;;;;;;5072927;28;20209;-73
2021/05/23 08:55:20;;;;;;;4.47;2.22;;;;;;;;;;5053799;28;20653;-76
2021/05/23 08:57:46;;;;;;;5.95;2.63;;;;;;;;;;5051201;28;20278;-74
2021/05/23 09:00:13;;;;;;;4.40;1.73;;;;;;;;;;5074213;28;20205;-74
2021/05/23 09:02:50;;;;;;;4.57;2.22;;;;;;;;;;5056719;28;20204;-73
2021/05/23 09:05:25;;;;;;;6.10;2.20;;;;;;;;;;5073240;28;20235;-75
2021/05/23 09:07:51;;;;;;;3.67;1.98;;;;;;;;;;5053017;28;20270;-75
2021/05/23 09:10:27;;;;;;;4.47;2.08;;;;;;;;;;5051998;28;20200;-72
2021/05/23 09:12:53;;;;;;;6.72;2.20;;;;;;;;;;5053457;28;20185;-74
2021/05/23 09:15:19;;;;;;;4.05;1.90;;;;;;;;;;5051997;28;20539;-74
2021/05/23 09:17:45;;;;;;;5.00;2.40;;;;;;;;;;5051711;28;20188;-74
2021/05/23 09:20:20;;;;;;;3.72;1.73;;;;;;;;;;5073016;28;20716;-73
2021/05/23 09:22:51;;;;;;;5.00;2.75;;;;;;;;;;5051388;28;20212;-75
2021/05/23 09:25:26;;;;;;;5.45;2.38;;;;;;;;;;5068379;28;20180;-73
2021/05/23 09:27:52;;;;;;;5.50;2.75;;;;;;;;;;5056805;28;20184;-74
2021/05/23 09:30:21;;;;;;;5.30;2.20;;;;;;;;;;5059385;28;20207;-73
2021/05/23 09:32:49;;;;;;;3.90;2.20;;;;;;;;;;5051342;28;20420;-74
2021/05/23 09:35:16;;;;;;;5.25;2.60;;;;;;;;;;5062422;28;20190;-73
2021/05/23 09:37:42;;;;;;;4.15;1.90;;;;;;;;;;5051394;28;20193;-73
2021/05/23 09:40:19;;;;;;;3.03;1.90;;;;;;;;;;5057322;28;20212;-76
2021/05/23 09:42:46;;;;;;;3.83;1.73;;;;;;;;;;5059180;28;20461;-73
2021/05/23 09:45:13;;;;;;;4.40;1.90;;;;;;;;;;5056685;28;20424;-76
2021/05/23 09:47:49;;;;;;;4.30;2.20;;;;;;;;;;5062072;28;20407;-72
2021/05/23 09:50:15;;;;;;;4.53;1.90;;;;;;;;;;5080123;28;20450;-75
2021/05/23 09:52:41;;;;;;;6.07;1.90;;;;;;;;;;5066071;28;20913;-76
2021/05/23 09:55:08;;;;;;;4.70;2.20;;;;;;;;;;5082150;28;20432;-75
2021/05/23 09:57:34;;;;;;;2.80;1.63;;;;;;;;;;5050837;28;20433;-71
2021/05/23 10:00:10;;;;;;;4.13;2.03;;;;;;;;;;5076232;28;20444;-77
2021/05/23 10:02:58;;;;;;;2.70;1.53;;;;;;;;;;5058725;28;20930;-74
2021/05/23 10:05:24;;;;;;;2.87;1.77;;;;;;;;;;5066417;28;20459;-73
2021/05/23 10:07:50;;;;;;;5.77;2.10;;;;;;;;;;5050933;28;20432;-73
2021/05/23 10:10:16;;;;;;;3.30;1.77;;;;;;;;;;5063003;28;20449;-74
2021/05/23 10:12:43;;;;;;;3.57;2.00;;;;;;;;;;5051107;28;21205;-76
2021/05/23 10:15:12;;;;;;;2.60;1.63;;;;;;;;;;5072966;28;20555;-75
2021/05/23 10:17:39;;;;;;;4.93;1.50;;;;;;;;;;5049166;28;20935;-74
2021/05/23 10:20:06;;;;;;;2.47;1.40;;;;;;;;;;5059547;28;20469;-75
2021/05/23 10:22:36;;;;;;;2.73;1.33;;;;;;;;;;5050715;28;20459;-71
2021/05/23 10:25:04;;;;;;;3.70;1.70;;;;;;;;;;5058076;28;20488;-73
2021/05/23 10:27:32;;;;;;;4.40;2.03;;;;;;;;;;5052709;28;20445;-74
2021/05/23 10:29:59;;;;;;;4.20;2.10;;;;;;;;;;5058903;28;20460;-72
2021/05/23 10:32:29;;;;;;;3.07;1.87;;;;;;;;;;5050591;28;20455;-76
2021/05/23 10:34:56;;;;;;;2.47;1.50;;;;;;;;;;5056623;28;20441;-74
2021/05/23 10:37:32;;;;;;;5.40;2.00;;;;;;;;;;5052284;28;20426;-73
2021/05/23 10:39:59;;;;;;;2.60;1.80;;;;;;;;;;5051612;28;20451;-77
2021/05/23 10:42:31;;;;;;;3.30;2.10;;;;;;;;;;5050199;28;20514;-71
2021/05/23 10:44:57;;;;;;;4.10;1.80;;;;;;;;;;5056447;28;20423;-75
2021/05/23 10:47:29;;;;;;;3.47;1.70;;;;;;;;;;5069048;28;20425;-75
2021/05/23 10:49:57;;;;;;;2.73;1.70;;;;;;;;;;5070226;28;20459;-71
2021/05/23 10:52:24;;;;;;;3.23;1.63;;;;;;;;;;5067884;28;20418;-77
2021/05/23 10:54:56;;;;;;;3.43;1.67;;;;;;;;;;5072224;28;20418;-74
2021/05/23 10:57:22;;;;;;;2.30;1.40;;;;;;;;;;5062580;28;20438;-75
2021/05/23 11:00:01;;;;;;;2.40;1.87;;;;;;;;;;5060742;28;20460;-75
2021/05/23 11:02:34;;;;;;;2.33;1.50;;;;;;;;;;5049819;28;20498;-75
2021/05/23 11:05:00;;;;;;;4.07;1.73;;;;;;;;;;5063112;28;20434;-77
2021/05/23 11:07:26;;;;;;;2.90;1.67;;;;;;;;;;5049756;28;20500;-72
2021/05/23 11:09:52;;;;;;;4.60;2.03;;;;;;;;;;5056705;28;20451;-74
2021/05/23 11:12:19;;;;;;;2.73;1.33;;;;;;;;;;5058487;28;20431;-73
2021/05/23 11:14:55;;;;;;;4.80;2.00;;;;;;;;;;5059327;28;20462;-75
2021/05/23 11:17:22;;;;;;;4.17;1.60;;;;;;;;;;5060764;28;20531;-72
2021/05/23 11:19:49;;;;;;;2.20;1.47;;;;;;;;;;5049502;28;20458;-74
2021/05/23 11:22:15;;;;;;;4.20;1.80;;;;;;;;;;5066496;28;20825;-77
2021/05/23 11:24:44;;;;;;;5.20;2.43;;;;;;;;;;5049087;28;20426;-75
2021/05/23 11:27:10;;;;;;;5.50;1.70;;;;;;;;;;5072438;28;20431;-73
2021/05/23 11:29:36;;;;;;;3.17;1.60;;;;;;;;;;5056667;28;20443;-73
2021/05/23 11:32:02;;;;;;;3.00;1.70;;;;;;;;;;5075527;28;20423;-77
2021/05/23 11:34:28;;;;;;;4.50;1.80;;;;;;;;;;5049064;28;20420;-75
2021/05/23 11:36:54;;;;;;;3.03;1.70;;;;;;;;;;5073793;28;20451;-73
2021/05/23 11:39:21;;;;;;;2.87;1.73;;;;;;;;;;5049087;28;20488;-76
2021/05/23 11:41:50;;;;;;;3.60;1.90;;;;;;;;;;5073545;28;21003;-79
2021/05/23 11:44:18;;;;;;;5.90;1.67;;;;;;;;;;5048923;28;20465;-73
2021/05/23 11:46:45;;;;;;;2.47;1.53;;;;;;;;;;5053337;28;20427;-76
2021/05/23 11:49:21;;;;;;;4.63;2.43;;;;;;;;;;5067593;28;20559;-77
2021/05/23 11:51:47;;;;;;;4.63;1.80;;;;;;;;;;5061744;28;20487;-75
2021/05/23 11:54:13;;;;;;;2.67;1.70;;;;;;;;;;5067002;28;20431;-73
2021/05/23 11:56:40;;;;;;;2.70;1.80;;;;;;;;;;5059201;28;20475;-74
2021/05/23 11:59:07;;;;;;;2.63;1.60;;;;;;;;;;5048783;28;20439;-76
2021/05/23 12:01:34;;;;;;;2.77;1.60;;;;;;;;;;5057277;28;20946;-74
2021/05/23 12:04:02;;;;;;;5.50;2.70;;;;;;;;;;5048777;28;20495;-73
2021/05/23 12:06:29;;;;;;;4.60;1.90;;;;;;;;;;5055332;28;20473;-75
2021/05/23 12:09:14;;;;;;;3.93;2.47;;;;;;;;;;5048596;28;20408;-76
2021/05/23 12:11:41;;;;;;;2.60;1.97;;;;;;;;;;5070166;28;20785;-75
2021/05/23 12:14:26;;;;;;;4.23;2.67;;;;;;;;;;5047448;28;20421;-76
2021/05/23 12:17:03;;;;;;;3.70;1.97;;;;;;;;;;5057030;28;20477;-76
2021/05/23 12:19:47;;;;;;;3.77;1.80;;;;;;;;;;5070893;28;20514;-76
2021/05/23 12:22:14;;;;;;;3.40;1.67;;;;;;;;;;5058237;28;21069;-76
2021/05/23 12:24:40;;;;;;;3.23;1.53;;;;;;;;;;5053946;28;20407;-74
2021/05/23 12:27:06;;;;;;;3.63;1.70;;;;;;;;;;5049187;28;20423;-75
2021/05/23 12:29:32;;;;;;;2.20;1.60;;;;;;;;;;5063008;28;20935;-75
2021/05/23 12:32:03;;;;;;;3.03;1.50;;;;;;;;;;5049093;28;20413;-76
2021/05/23 12:34:29;;;;;;;3.90;2.30;;;;;;;;;;5049322;28;20419;-73
2021/05/23 12:36:59;;;;;;;2.60;1.77;;;;;;;;;;5066733;28;20414;-74
2021/05/23 12:39:25;;;;;;;3.70;2.00;;;;;;;;;;5049157;28;20797;-79
2021/05/23 12:41:53;;;;;;;3.70;1.67;;;;;;;;;;5052790;28;20427;-74
2021/05/23 12:44:19;;;;;;;2.70;2.10;;;;;;;;;;5052436;28;20471;-74
2021/05/23 12:46:45;;;;;;;2.53;1.90;;;;;;;;;;5057290;28;20505;-77
2021/05/23 12:49:16;;;;;;;5.63;1.93;;;;;;;;;;5072492;28;20426;-72
2021/05/23 12:51:43;;;;;;;2.53;1.90;;;;;;;;;;5072408;28;20419;-75
2021/05/23 12:54:09;;;;;;;4.33;2.13;;;;;;;;;;5072470;28;20828;-73
2021/05/23 12:56:36;;;;;;;3.50;2.53;;;;;;;;;;5072125;28;20414;-76
2021/05/23 12:59:05;;;;;;;3.00;2.20;;;;;;;;;;5059565;28;20415;-72
2021/05/23 13:01:34;;;;;;;2.50;2.10;;;;;;;;;;5052428;28;20423;-75
2021/05/23 13:04:01;;;;;;;5.07;2.93;;;;;;;;;;5065573;28;20583;-74
2021/05/23 13:06:38;;;;;;;3.43;2.70;;;;;;;;;;5052091;28;20442;-77
2021/05/23 13:09:05;;;;;;;2.80;2.60;;;;;;;;;;5051994;28;20437;-75
2021/05/23 13:11:31;;;;;;;4.40;4.00;;;;;;;;;;5055624;28;20821;-73
2021/05/23 13:13:58;;;;;;;4.20;3.50;;;;;;;;;;5051833;28;20428;-75
2021/05/23 13:16:24;;;;;;;3.60;3.10;;;;;;;;;;5063367;28;20430;-76
2021/05/23 13:18:50;;;;;;;3.17;2.83;;;;;;;;;;5065760;28;21323;-73
2021/05/23 13:21:18;;;;;;;3.90;2.60;;;;;;;;;;5051849;28;20707;-74
2021/05/23 13:23:49;;;;;;;5.20;3.60;;;;;;;;;;5063153;28;20466;-73
2021/05/23 13:26:15;;;;;;;4.13;3.50;;;;;;;;;;5051745;28;20435;-75
2021/05/23 13:28:41;;;;;;;4.50;4.10;;;;;;;;;;5060956;28;20482;-76
2021/05/23 13:31:07;;;;;;;5.00;3.27;;;;;;;;;;5059088;28;20462;-77
2021/05/23 13:33:33;;;;;;;4.30;3.30;;;;;;;;;;5059273;28;20436;-74
2021/05/23 13:36:04;;;;;;;5.87;3.20;;;;;;;;;;5060210;28;20426;-75
2021/05/23 13:38:30;;;;;;;5.30;2.93;;;;;;;;;;5070461;28;20435;-72
2021/05/23 13:40:56;;;;;;;4.20;3.07;;;;;;;;;;5061213;28;20450;-73
2021/05/23 13:43:23;;;;;;;3.93;3.27;;;;;;;;;;5065481;28;20465;-73
2021/05/23 13:45:49;;;;;;;3.80;3.27;;;;;;;;;;5075183;28;20446;-75
2021/05/23 13:48:14;;;;;;;4.17;3.77;;;;;;;;;;5064964;28;20796;-75
2021/05/23 13:50:42;;;;;;;4.93;2.97;;;;;;;;;;5050885;28;20448;-75
2021/05/23 13:53:08;;;;;;;4.40;3.47;;;;;;;;;;5051796;28;20435;-73
2021/05/23 13:55:34;;;;;;;3.80;3.50;;;;;;;;;;5051584;28;20575;-77
2021/05/23 13:58:00;;;;;;;4.57;3.13;;;;;;;;;;5054064;28;21821;-76
2021/05/23 14:00:26;;;;;;;5.23;4.63;;;;;;;;;;5060497;28;20455;-75
2021/05/23 14:03:14;;;;;;;4.87;4.37;;;;;;;;;;5051766;28;20462;-75
2021/05/23 14:05:38;;;;;;;8.33;4.50;;;;;;;;;;5057243;28;20438;-71
2021/05/23 14:08:04;;;;;;;4.53;4.13;;;;;;;;;;5052897;28;20407;-75
2021/05/23 14:10:30;;;;;;;3.97;3.67;;;;;;;;;;5057476;28;20443;-73
2021/05/23 14:12:56;;;;;;;5.43;3.20;;;;;;;;;;5051290;28;20420;-73
2021/05/23 14:15:22;;;;;;;3.40;3.10;;;;;;;;;;5057381;28;20594;-76
2021/05/23 14:17:48;;;;;;;4.50;3.80;;;;;;;;;;5050690;28;20454;-75
2021/05/23 14:20:14;;;;;;;4.20;3.60;;;;;;;;;;5054272;28;20883;-73
2021/05/23 14:22:40;;;;;;;4.10;3.70;;;;;;;;;;5050436;28;20555;-72
2021/05/23 14:25:07;;;;;;;4.03;3.73;;;;;;;;;;5050472;28;20503;-75
2021/05/23 14:27:33;;;;;;;4.85;3.47;;;;;;;;;;5053502;28;20415;-75
2021/05/23 14:29:59;;;;;;;5.40;4.30;;;;;;;;;;5056134;28;20197;-74
2021/05/23 14:32:25;;;;;;;3.97;3.67;;;;;;;;;;5050896;28;20646;-75
2021/05/23 14:34:51;;;;;;;4.03;3.70;;;;;;;;;;5063970;28;20259;-74
2021/05/23 14:37:17;;;;;;;4.20;3.80;;;;;;;;;;5067983;28;20469;-74
2021/05/23 14:39:43;;;;;;;4.13;3.80;;;;;;;;;;5070661;28;20446;-75
2021/05/23 14:42:09;;;;;;;4.23;3.10;;;;;;;;;;5051029;28;20768;-76
2021/05/23 14:44:35;;;;;;;3.80;3.50;;;;;;;;;;5050431;28;20470;-74